My Meet Scores
Sydney Roberson, Aspire Gymnastics Academy - MyMeetScores.com
Top100 | Top Teams | Upcoming Meets | Completed Meets | Latest | Add Scores | Help| Support | Bookmark and Share

Sydney Roberson, Aspire Gymnastics Academy
Personal Bests
LevelVault BarsBeamFloorAA
39.6259.400 9.1758.95036.425
49.3509.550 9.7009.20037.325
Meet Scores
Date Meet Team Session Level Division Vault Bars Beam Floor AA
2018-03-08 Level 4 & 5 State Aspire Gymnastics Academy All 4 Jr B 9.350 3T 9.175 10 9.700 3 9.100 13T 37.325 5T
2018-01-26 2018 UGA Classic Aspire Gymnastics Academy B2 4 Sr A 0.000 16 9.475 3T 9.250 8 9.200 6T 27.925 15
2018-01-19 2018 Bravo Classic Aspire Gymnastics Academy 11B 4 Sr 9.025 2 8.950 10 9.600 2 8.975 15 36.550 3
2017-12-15 2017 Aspire Classic Aspire Gymnastics Academy 3 4 Sr A 9.000 7T 9.100 10 9.250 6T 8.700 12T 36.050 9
2017-12-08 St. Nick Invite Aspire Gymnastics Academy 7A 4 JrB 8.950 7 9.350 3 9.550 4 9.050 7 36.900 3
2017-11-16 Paul Hamm Thanksgiving Classic - Women Aspire Gymnastics Academy 7 4 Middle 9.000 4T 9.550 12 9.050 19* 9.050 12 36.650 13T
2017-03-10 2017 Illinois Level 4 State Championships Aspire Gymnastics Academy 2 4 Ch F 9.125 6T 8.000 27T 9.000 19 8.450 23T 34.575 23
2017-02-24 Kinetic Classic Aspire Gymnastics Academy 5,6 4 All Ages 9.100 25T 7.950 107T 9.350 24T 8.050 117T 34.450 93
2017-02-18 2017 Great Western Invitational Women's Aspire Gymnastics Academy 5 4 Filly 8.050 16T 7.300 18 9.150 9T 7.925 21 32.425 17
2017-01-27 2017 UGA Invitational Aspire Gymnastics Academy C12 4 Child 8.450 7T 8.400 13 9.375 5 8.525 16 34.750 9
2017-01-20 2017 Bravo Classic Aspire Gymnastics Academy 08B 4 9yrs 7.850 19 8.175 18 9.250 5 8.275 18 33.550 18
2016-12-16 2016 Aspire Classic Aspire Gymnastics Academy 5 4 Younger 8.250 9 7.300 9 9.025 6 8.475 8 33.050 8
2016-12-09 St. Nick Invite Aspire Gymnastics Academy 7 4 JrB 8.000 16 7.225 17 9.150 9 8.625 14 33.000 15
2016-11-19 Paul Hamm Thanksgiving Classic - 2016 Girls Aspire Gymnastics Academy 7 4 9 yrs 7.550 32T 8.000 27T 9.175 14T 8.575 26 33.300 27
2016-03-04 2016 Illinois Level 3 State Championships Aspire Gymnastics Academy 3 Youth-B 9.625 4 9.200 8 8.800 9 8.525 26 36.150 9
2016-01-15 2016 Bravo Classic Aspire Gymnastics Academy 15A 3 8yrs 8.450 25 9.400 7 9.175 5 8.575 21 35.600 16T
2015-12-18 2015 Aspire Classic Aspire Gymnastics Academy 10 3 Younger 9.375 7 9.250 9T 8.850 12 8.950 11 36.425 10
2015-12-11 St. Nick Invite Aspire Gymnastics Academy 6A 3 All 9.150 22T 8.700 13 9.150 5* 8.625 25 35.625 12T
2015-03-12 2015 Illinois Level 3 State Championship Aspire Gymnastics Academy All 3 Child-C 8.500 30 8.650 16 8.450 23 8.150 28 33.750 28
2015-02-14 2015 Great Western Invitational Aspire Gymnastics Academy 7 3 Filly 8.500 23 8.650 13 8.350 11T 8.375 16 33.875 15

www.lazysuits.com